Chicago, IL

2:21 PM CDT on August 28, 2016 (GMT -0500)
West Loop | | Change Station

Elev 571 ft 41.88 °N, 87.64 °W | Updated 36 seconds ago

Scattered Clouds
Scattered Clouds
81.5 °F
Feels Like 83 °F
N
3.7
Wind Variable Wind from ENE

Today
High -- | Low -- °F
--% Chance of Precip.
Yesterday
High -- | Low -- °F
Precip. -- in
Pressure 30.15 in
Visibility 10.0 miles
Clouds Few 2500 ft
Few 7000 ft
Scattered Clouds 15000 ft
Scattered Clouds 25000 ft
Heat Index 83 °F
Dew Point 63 °F
Humidity 54%
Rainfall 0.00 in
Snow Depth Not available.
6:12 AM 7:29 PM
Waning Crescent, 14% visible
METAR KMDW 281853Z 09008KT 10SM FEW025 FEW070 SCT150 SCT250 28/20 A3018 RMK AO2 SLP210 CB DSNT E-S-SW T02830200
Pressure 30.15 in
Visibility 10.0 miles
Clouds Few 2500 ft
Few 7000 ft
Scattered Clouds 15000 ft
Scattered Clouds 25000 ft
Heat Index 83 °F
Dew Point 63 °F
Humidity 54%
Rainfall 0.00 in
Snow Depth Not available.
6:12 AM 7:29 PM
Waning Crescent, 14% visible
METAR KMDW 281853Z 09008KT 10SM FEW025 FEW070 SCT150 SCT250 28/20 A3018 RMK AO2 SLP210 CB DSNT E-S-SW T02830200

10-Day Weather Forecast

Almanac

Astronomy

Aug. 28, 2016 Rise Set
Actual Time
Civil Twilight
Nautical Twilight
Astronomical Twilight
Moon
Length of Visible Light
Length of Day
Tomorrow will be .
, % of the Moon is Illuminated

Today's Extremes

State Highs State Lows

Community

WunderPhotos

Upload Photos

1,935,661 photos uploaded!

WunderBlog® & News

Nearby

Air Quality

  Air Quality AQ Index Pollutant
Not available.

Snow Depth

Station Depth Elevation

Earthquake Activity

City Distance Mag. Time & Date
Minimum magnitude displayed is 2.5.

Coastal Water Temperatures

Place Temperature

Stations

Nearby Weather Stations

Station Location Temp. Windchill Dew Point Humidity Wind Precip. Elev Updated Type
                   

Watches & Warnings

There are currently no watches in effect.